sensor_id;sensor_type;location;lat;lon;timestamp;temperature;humidity
9437;DHT22;4757;59.334;18.034;2022-08-01T00:00:07;17.30;99.90
9437;DHT22;4757;59.334;18.034;2022-08-01T00:02:36;17.20;99.90
9437;DHT22;4757;59.334;18.034;2022-08-01T00:05:06;17.30;99.90
9437;DHT22;4757;59.334;18.034;2022-08-01T00:07:34;17.30;99.90
9437;DHT22;4757;59.334;18.034;2022-08-01T00:10:07;17.20;99.90
9437;DHT22;4757;59.334;18.034;2022-08-01T00:12:35;17.30;99.90
9437;DHT22;4757;59.334;18.034;2022-08-01T00:15:04;17.20;99.90
9437;DHT22;4757;59.334;18.034;2022-08-01T00:17:32;17.20;99.90
9437;DHT22;4757;59.334;18.034;2022-08-01T00:19:59;17.10;99.90
9437;DHT22;4757;59.334;18.034;2022-08-01T00:22:26;17.20;99.90
9437;DHT22;4757;59.334;18.034;2022-08-01T00:24:53;17.00;99.90
9437;DHT22;4757;59.334;18.034;2022-08-01T00:27:21;17.00;99.90
9437;DHT22;4757;59.334;18.034;2022-08-01T00:29:48;17.00;99.90
9437;DHT22;4757;59.334;18.034;2022-08-01T00:32:35;16.90;99.90
9437;DHT22;4757;59.334;18.034;2022-08-01T00:35:02;17.00;99.90
9437;DHT22;4757;59.334;18.034;2022-08-01T00:37:31;16.90;99.90
9437;DHT22;4757;59.334;18.034;2022-08-01T00:39:58;16.90;99.90
9437;DHT22;4757;59.334;18.034;2022-08-01T00:42:25;16.90;99.90
9437;DHT22;4757;59.334;18.034;2022-08-01T00:44:52;16.90;99.90
9437;DHT22;4757;59.334;18.034;2022-08-01T00:47:19;17.00;99.90
9437;DHT22;4757;59.334;18.034;2022-08-01T00:49:46;17.00;99.90
9437;DHT22;4757;59.334;18.034;2022-08-01T00:52:13;16.90;99.90
9437;DHT22;4757;59.334;18.034;2022-08-01T00:54:40;17.00;99.90
9437;DHT22;4757;59.334;18.034;2022-08-01T00:57:08;16.90;99.90
9437;DHT22;4757;59.334;18.034;2022-08-01T00:59:37;16.80;99.90
9437;DHT22;4757;59.334;18.034;2022-08-01T01:02:07;16.80;99.90
9437;DHT22;4757;59.334;18.034;2022-08-01T01:04:41;16.80;99.90
9437;DHT22;4757;59.334;18.034;2022-08-01T01:07:34;16.80;99.90
9437;DHT22;4757;59.334;18.034;2022-08-01T01:10:16;16.80;99.90
9437;DHT22;4757;59.334;18.034;2022-08-01T01:12:54;16.80;99.90
9437;DHT22;4757;59.334;18.034;2022-08-01T01:18:25;16.80;99.90
9437;DHT22;4757;59.334;18.034;2022-08-01T01:27:20;16.80;99.90
9437;DHT22;4757;59.334;18.034;2022-08-01T01:29:52;16.80;99.90
9437;DHT22;4757;59.334;18.034;2022-08-01T01:32:32;16.70;99.90
9437;DHT22;4757;59.334;18.034;2022-08-01T01:35:07;16.70;99.90
9437;DHT22;4757;59.334;18.034;2022-08-01T01:37:38;16.80;99.90
9437;DHT22;4757;59.334;18.034;2022-08-01T01:40:07;16.80;99.90
9437;DHT22;4757;59.334;18.034;2022-08-01T01:42:36;16.80;99.90
9437;DHT22;4757;59.334;18.034;2022-08-01T01:45:04;16.70;99.90
9437;DHT22;4757;59.334;18.034;2022-08-01T01:47:32;16.80;99.90
9437;DHT22;4757;59.334;18.034;2022-08-01T01:50:01;16.80;99.90
9437;DHT22;4757;59.334;18.034;2022-08-01T01:52:29;16.80;99.90
9437;DHT22;4757;59.334;18.034;2022-08-01T01:55:01;16.90;99.90
9437;DHT22;4757;59.334;18.034;2022-08-01T01:57:32;16.80;99.90
9437;DHT22;4757;59.334;18.034;2022-08-01T02:00:02;16.70;99.90
9437;DHT22;4757;59.334;18.034;2022-08-01T02:02:30;16.70;99.90
9437;DHT22;4757;59.334;18.034;2022-08-01T02:04:58;16.80;99.90
9437;DHT22;4757;59.334;18.034;2022-08-01T02:07:26;16.80;99.90
9437;DHT22;4757;59.334;18.034;2022-08-01T02:09:55;16.80;99.90
9437;DHT22;4757;59.334;18.034;2022-08-01T02:12:24;16.80;99.90
9437;DHT22;4757;59.334;18.034;2022-08-01T02:14:52;16.80;99.90
9437;DHT22;4757;59.334;18.034;2022-08-01T02:17:21;16.90;99.90
9437;DHT22;4757;59.334;18.034;2022-08-01T02:19:50;16.90;99.90
9437;DHT22;4757;59.334;18.034;2022-08-01T02:22:22;16.90;99.90
9437;DHT22;4757;59.334;18.034;2022-08-01T02:24:59;16.90;99.90
9437;DHT22;4757;59.334;18.034;2022-08-01T02:27:34;16.90;99.90
9437;DHT22;4757;59.334;18.034;2022-08-01T02:30:07;16.90;99.90
9437;DHT22;4757;59.334;18.034;2022-08-01T02:32:39;16.90;99.90
9437;DHT22;4757;59.334;18.034;2022-08-01T02:35:13;16.90;99.90
9437;DHT22;4757;59.334;18.034;2022-08-01T02:37:41;16.90;99.90
9437;DHT22;4757;59.334;18.034;2022-08-01T02:40:13;16.90;99.90
9437;DHT22;4757;59.334;18.034;2022-08-01T02:42:44;16.90;99.90
9437;DHT22;4757;59.334;18.034;2022-08-01T02:45:13;16.90;99.90
9437;DHT22;4757;59.334;18.034;2022-08-01T02:47:41;16.90;99.90
9437;DHT22;4757;59.334;18.034;2022-08-01T02:50:10;17.00;99.90
9437;DHT22;4757;59.334;18.034;2022-08-01T02:52:40;17.00;99.90
9437;DHT22;4757;59.334;18.034;2022-08-01T02:55:09;17.00;99.90
9437;DHT22;4757;59.334;18.034;2022-08-01T02:57:38;16.80;99.90
9437;DHT22;4757;59.334;18.034;2022-08-01T03:00:18;16.90;99.90
9437;DHT22;4757;59.334;18.034;2022-08-01T03:02:52;16.90;99.90
9437;DHT22;4757;59.334;18.034;2022-08-01T03:05:22;16.90;99.90
9437;DHT22;4757;59.334;18.034;2022-08-01T03:07:52;16.90;99.90
9437;DHT22;4757;59.334;18.034;2022-08-01T03:10:20;16.90;99.90
9437;DHT22;4757;59.334;18.034;2022-08-01T03:12:48;17.00;99.90
9437;DHT22;4757;59.334;18.034;2022-08-01T03:15:17;17.00;99.90
9437;DHT22;4757;59.334;18.034;2022-08-01T03:17:45;17.00;99.90
9437;DHT22;4757;59.334;18.034;2022-08-01T03:20:15;17.00;99.90
9437;DHT22;4757;59.334;18.034;2022-08-01T03:22:44;17.00;99.90
9437;DHT22;4757;59.334;18.034;2022-08-01T03:25:13;17.10;99.90
9437;DHT22;4757;59.334;18.034;2022-08-01T03:27:50;17.10;99.90
9437;DHT22;4757;59.334;18.034;2022-08-01T03:30:18;17.10;99.90
9437;DHT22;4757;59.334;18.034;2022-08-01T03:32:45;17.10;99.90
9437;DHT22;4757;59.334;18.034;2022-08-01T03:35:12;17.10;99.90
9437;DHT22;4757;59.334;18.034;2022-08-01T03:37:48;17.10;99.90
9437;DHT22;4757;59.334;18.034;2022-08-01T03:40:43;17.10;99.90
9437;DHT22;4757;59.334;18.034;2022-08-01T03:43:18;17.20;99.90
9437;DHT22;4757;59.334;18.034;2022-08-01T03:45:51;17.20;99.90
9437;DHT22;4757;59.334;18.034;2022-08-01T03:48:24;17.20;99.90
9437;DHT22;4757;59.334;18.034;2022-08-01T03:50:55;17.10;99.90
9437;DHT22;4757;59.334;18.034;2022-08-01T03:53:28;17.10;99.90
9437;DHT22;4757;59.334;18.034;2022-08-01T03:55:56;17.10;99.90
9437;DHT22;4757;59.334;18.034;2022-08-01T03:58:25;17.10;99.90
9437;DHT22;4757;59.334;18.034;2022-08-01T04:00:54;17.20;99.90
9437;DHT22;4757;59.334;18.034;2022-08-01T04:03:21;17.20;99.90
9437;DHT22;4757;59.334;18.034;2022-08-01T04:05:49;17.10;99.90
9437;DHT22;4757;59.334;18.034;2022-08-01T04:08:17;17.20;99.90
9437;DHT22;4757;59.334;18.034;2022-08-01T04:10:44;17.20;99.90
9437;DHT22;4757;59.334;18.034;2022-08-01T04:13:11;17.30;99.90
9437;DHT22;4757;59.334;18.034;2022-08-01T04:15:39;17.30;99.90
9437;DHT22;4757;59.334;18.034;2022-08-01T04:18:06;17.40;99.90
9437;DHT22;4757;59.334;18.034;2022-08-01T04:20:33;17.50;99.90
9437;DHT22;4757;59.334;18.034;2022-08-01T04:23:03;17.50;99.90
9437;DHT22;4757;59.334;18.034;2022-08-01T04:25:34;17.50;99.90
9437;DHT22;4757;59.334;18.034;2022-08-01T04:28:03;17.50;99.90
9437;DHT22;4757;59.334;18.034;2022-08-01T04:30:35;17.60;99.90
9437;DHT22;4757;59.334;18.034;2022-08-01T04:33:06;17.60;99.90
9437;DHT22;4757;59.334;18.034;2022-08-01T04:35:36;17.70;99.90
9437;DHT22;4757;59.334;18.034;2022-08-01T04:38:26;17.80;99.90
9437;DHT22;4757;59.334;18.034;2022-08-01T04:40:54;17.80;99.90
9437;DHT22;4757;59.334;18.034;2022-08-01T04:43:23;17.90;99.90
9437;DHT22;4757;59.334;18.034;2022-08-01T04:45:51;18.00;99.90
9437;DHT22;4757;59.334;18.034;2022-08-01T04:48:18;18.20;99.90
9437;DHT22;4757;59.334;18.034;2022-08-01T04:50:48;18.30;99.90
9437;DHT22;4757;59.334;18.034;2022-08-01T04:53:18;18.30;99.90
9437;DHT22;4757;59.334;18.034;2022-08-01T04:55:45;18.30;99.90
9437;DHT22;4757;59.334;18.034;2022-08-01T04:58:14;18.40;99.90
9437;DHT22;4757;59.334;18.034;2022-08-01T05:00:44;18.40;99.90
9437;DHT22;4757;59.334;18.034;2022-08-01T05:03:18;18.40;99.90
9437;DHT22;4757;59.334;18.034;2022-08-01T05:05:56;18.50;99.90
9437;DHT22;4757;59.334;18.034;2022-08-01T05:08:27;18.70;99.90
9437;DHT22;4757;59.334;18.034;2022-08-01T05:10:54;18.90;99.90
9437;DHT22;4757;59.334;18.034;2022-08-01T05:13:21;19.00;99.90
9437;DHT22;4757;59.334;18.034;2022-08-01T05:15:49;19.10;99.90
9437;DHT22;4757;59.334;18.034;2022-08-01T05:18:18;19.10;99.90
9437;DHT22;4757;59.334;18.034;2022-08-01T05:20:54;19.00;99.90
9437;DHT22;4757;59.334;18.034;2022-08-01T05:23:21;19.00;99.90
9437;DHT22;4757;59.334;18.034;2022-08-01T05:26:08;19.00;99.90
9437;DHT22;4757;59.334;18.034;2022-08-01T05:28:36;19.00;99.90
9437;DHT22;4757;59.334;18.034;2022-08-01T05:31:03;18.80;99.90
9437;DHT22;4757;59.334;18.034;2022-08-01T05:33:30;19.00;99.90
9437;DHT22;4757;59.334;18.034;2022-08-01T05:35:57;19.10;99.90
9437;DHT22;4757;59.334;18.034;2022-08-01T05:38:24;19.10;99.90
9437;DHT22;4757;59.334;18.034;2022-08-01T05:40:51;19.10;99.90
9437;DHT22;4757;59.334;18.034;2022-08-01T05:43:18;19.20;99.90
9437;DHT22;4757;59.334;18.034;2022-08-01T05:45:46;19.20;99.90
9437;DHT22;4757;59.334;18.034;2022-08-01T05:48:13;19.10;99.90
9437;DHT22;4757;59.334;18.034;2022-08-01T05:50:40;19.20;99.90
9437;DHT22;4757;59.334;18.034;2022-08-01T05:53:09;19.30;99.90
9437;DHT22;4757;59.334;18.034;2022-08-01T05:55:36;19.40;99.90
9437;DHT22;4757;59.334;18.034;2022-08-01T05:58:03;19.30;99.90
9437;DHT22;4757;59.334;18.034;2022-08-01T06:00:31;19.50;99.90
9437;DHT22;4757;59.334;18.034;2022-08-01T06:02:58;19.40;99.90
9437;DHT22;4757;59.334;18.034;2022-08-01T06:05:25;19.50;99.90
9437;DHT22;4757;59.334;18.034;2022-08-01T06:07:52;19.50;99.90
9437;DHT22;4757;59.334;18.034;2022-08-01T06:10:19;19.40;99.90
9437;DHT22;4757;59.334;18.034;2022-08-01T06:12:46;19.40;99.90
9437;DHT22;4757;59.334;18.034;2022-08-01T06:15:13;19.40;99.90
9437;DHT22;4757;59.334;18.034;2022-08-01T06:17:40;19.50;99.90
9437;DHT22;4757;59.334;18.034;2022-08-01T06:20:08;19.80;99.90
9437;DHT22;4757;59.334;18.034;2022-08-01T06:22:36;19.90;99.90
9437;DHT22;4757;59.334;18.034;2022-08-01T06:25:04;19.90;99.90
9437;DHT22;4757;59.334;18.034;2022-08-01T06:27:34;19.80;99.90
9437;DHT22;4757;59.334;18.034;2022-08-01T06:30:01;19.90;99.90
9437;DHT22;4757;59.334;18.034;2022-08-01T06:32:28;19.90;99.90
9437;DHT22;4757;59.334;18.034;2022-08-01T06:34:56;19.90;99.90
9437;DHT22;4757;59.334;18.034;2022-08-01T06:37:23;20.00;99.90
9437;DHT22;4757;59.334;18.034;2022-08-01T06:39:50;20.20;99.90
9437;DHT22;4757;59.334;18.034;2022-08-01T06:42:17;20.20;99.90
9437;DHT22;4757;59.334;18.034;2022-08-01T06:44:45;20.20;99.90
9437;DHT22;4757;59.334;18.034;2022-08-01T06:47:12;20.50;99.90
9437;DHT22;4757;59.334;18.034;2022-08-01T06:49:39;20.90;99.90
9437;DHT22;4757;59.334;18.034;2022-08-01T06:52:06;21.00;99.90
9437;DHT22;4757;59.334;18.034;2022-08-01T06:54:34;21.20;99.90
9437;DHT22;4757;59.334;18.034;2022-08-01T06:57:05;21.40;99.90
9437;DHT22;4757;59.334;18.034;2022-08-01T06:59:34;21.40;99.90
9437;DHT22;4757;59.334;18.034;2022-08-01T07:02:01;21.40;99.90
9437;DHT22;4757;59.334;18.034;2022-08-01T07:04:29;21.60;99.90
9437;DHT22;4757;59.334;18.034;2022-08-01T07:06:56;21.40;99.90
9437;DHT22;4757;59.334;18.034;2022-08-01T07:09:23;21.50;99.90
9437;DHT22;4757;59.334;18.034;2022-08-01T07:11:51;21.50;99.90
9437;DHT22;4757;59.334;18.034;2022-08-01T07:14:19;21.60;99.90
9437;DHT22;4757;59.334;18.034;2022-08-01T07:16:46;21.60;99.90
9437;DHT22;4757;59.334;18.034;2022-08-01T07:19:14;21.70;99.90
9437;DHT22;4757;59.334;18.034;2022-08-01T07:21:41;21.60;99.90
9437;DHT22;4757;59.334;18.034;2022-08-01T07:24:12;21.60;99.90
9437;DHT22;4757;59.334;18.034;2022-08-01T07:26:45;21.30;99.90
9437;DHT22;4757;59.334;18.034;2022-08-01T07:29:29;21.20;99.90
9437;DHT22;4757;59.334;18.034;2022-08-01T07:31:57;21.20;99.90
9437;DHT22;4757;59.334;18.034;2022-08-01T07:34:24;21.40;99.90
9437;DHT22;4757;59.334;18.034;2022-08-01T07:36:52;21.40;99.90
9437;DHT22;4757;59.334;18.034;2022-08-01T07:39:19;21.60;99.90
9437;DHT22;4757;59.334;18.034;2022-08-01T07:41:47;21.20;99.90
9437;DHT22;4757;59.334;18.034;2022-08-01T07:44:33;21.40;99.90
9437;DHT22;4757;59.334;18.034;2022-08-01T07:47:04;21.60;99.90
9437;DHT22;4757;59.334;18.034;2022-08-01T07:49:32;21.90;99.90
9437;DHT22;4757;59.334;18.034;2022-08-01T07:52:05;21.70;99.90
9437;DHT22;4757;59.334;18.034;2022-08-01T07:54:32;21.60;99.90
9437;DHT22;4757;59.334;18.034;2022-08-01T07:57:01;21.50;99.90
9437;DHT22;4757;59.334;18.034;2022-08-01T07:59:28;22.20;99.90
9437;DHT22;4757;59.334;18.034;2022-08-01T08:01:55;22.70;99.90
9437;DHT22;4757;59.334;18.034;2022-08-01T08:04:22;22.60;99.90
9437;DHT22;4757;59.334;18.034;2022-08-01T08:06:49;23.20;99.90
9437;DHT22;4757;59.334;18.034;2022-08-01T08:09:16;23.00;99.90
9437;DHT22;4757;59.334;18.034;2022-08-01T08:11:44;22.90;99.90
9437;DHT22;4757;59.334;18.034;2022-08-01T08:14:14;23.10;99.90
9437;DHT22;4757;59.334;18.034;2022-08-01T08:16:42;22.60;99.90
9437;DHT22;4757;59.334;18.034;2022-08-01T08:19:10;22.40;99.90
9437;DHT22;4757;59.334;18.034;2022-08-01T08:21:37;23.20;99.90
9437;DHT22;4757;59.334;18.034;2022-08-01T08:24:06;23.30;99.90
9437;DHT22;4757;59.334;18.034;2022-08-01T08:27:02;23.20;99.90
9437;DHT22;4757;59.334;18.034;2022-08-01T08:29:31;23.20;99.90
9437;DHT22;4757;59.334;18.034;2022-08-01T08:31:59;23.10;99.90
9437;DHT22;4757;59.334;18.034;2022-08-01T08:34:28;23.20;99.90
9437;DHT22;4757;59.334;18.034;2022-08-01T08:36:56;22.80;99.90
9437;DHT22;4757;59.334;18.034;2022-08-01T08:39:24;22.50;99.90
9437;DHT22;4757;59.334;18.034;2022-08-01T08:41:52;22.40;99.90
9437;DHT22;4757;59.334;18.034;2022-08-01T08:44:19;22.20;99.90
9437;DHT22;4757;59.334;18.034;2022-08-01T08:46:49;22.80;99.90
9437;DHT22;4757;59.334;18.034;2022-08-01T08:49:20;22.20;99.90
9437;DHT22;4757;59.334;18.034;2022-08-01T08:51:50;22.40;99.90
9437;DHT22;4757;59.334;18.034;2022-08-01T08:54:19;23.10;99.90
9437;DHT22;4757;59.334;18.034;2022-08-01T08:56:59;23.10;99.90
9437;DHT22;4757;59.334;18.034;2022-08-01T08:59:28;22.80;99.90
9437;DHT22;4757;59.334;18.034;2022-08-01T09:01:57;22.70;99.90
9437;DHT22;4757;59.334;18.034;2022-08-01T09:04:25;23.00;99.90
9437;DHT22;4757;59.334;18.034;2022-08-01T09:06:53;23.90;99.90
9437;DHT22;4757;59.334;18.034;2022-08-01T09:09:21;23.90;99.90
9437;DHT22;4757;59.334;18.034;2022-08-01T09:11:49;25.30;99.90
9437;DHT22;4757;59.334;18.034;2022-08-01T09:14:24;26.30;99.90
9437;DHT22;4757;59.334;18.034;2022-08-01T09:17:06;26.40;99.90
9437;DHT22;4757;59.334;18.034;2022-08-01T09:19:38;26.00;99.90
9437;DHT22;4757;59.334;18.034;2022-08-01T09:22:12;26.50;99.90
9437;DHT22;4757;59.334;18.034;2022-08-01T09:24:41;26.30;99.90
9437;DHT22;4757;59.334;18.034;2022-08-01T09:27:19;26.50;99.90
9437;DHT22;4757;59.334;18.034;2022-08-01T09:29:48;26.90;99.90
9437;DHT22;4757;59.334;18.034;2022-08-01T09:32:30;24.70;99.90
9437;DHT22;4757;59.334;18.034;2022-08-01T09:35:27;23.80;99.90
9437;DHT22;4757;59.334;18.034;2022-08-01T09:38:28;23.70;99.90
9437;DHT22;4757;59.334;18.034;2022-08-01T09:41:00;25.10;99.90
9437;DHT22;4757;59.334;18.034;2022-08-01T09:43:30;25.50;99.90
9437;DHT22;4757;59.334;18.034;2022-08-01T09:45:59;25.70;99.90
9437;DHT22;4757;59.334;18.034;2022-08-01T09:48:27;24.50;99.90
9437;DHT22;4757;59.334;18.034;2022-08-01T09:50:57;23.60;99.90
9437;DHT22;4757;59.334;18.034;2022-08-01T09:53:44;23.80;99.90
9437;DHT22;4757;59.334;18.034;2022-08-01T09:56:17;24.50;99.90
9437;DHT22;4757;59.334;18.034;2022-08-01T09:58:57;25.50;99.90
9437;DHT22;4757;59.334;18.034;2022-08-01T10:01:49;25.20;99.90
9437;DHT22;4757;59.334;18.034;2022-08-01T10:04:19;25.40;99.90
9437;DHT22;4757;59.334;18.034;2022-08-01T10:06:48;26.10;99.90
9437;DHT22;4757;59.334;18.034;2022-08-01T10:09:33;26.40;99.90
9437;DHT22;4757;59.334;18.034;2022-08-01T10:12:07;24.50;99.90
9437;DHT22;4757;59.334;18.034;2022-08-01T10:14:42;24.60;99.90
9437;DHT22;4757;59.334;18.034;2022-08-01T10:17:17;24.50;99.90
9437;DHT22;4757;59.334;18.034;2022-08-01T10:19:48;24.90;99.90
9437;DHT22;4757;59.334;18.034;2022-08-01T10:22:24;25.30;99.90
9437;DHT22;4757;59.334;18.034;2022-08-01T10:24:56;25.10;99.90
9437;DHT22;4757;59.334;18.034;2022-08-01T10:27:25;24.60;99.90
9437;DHT22;4757;59.334;18.034;2022-08-01T10:30:04;23.90;99.90
9437;DHT22;4757;59.334;18.034;2022-08-01T10:32:50;24.20;99.90
9437;DHT22;4757;59.334;18.034;2022-08-01T10:35:21;24.30;99.90
9437;DHT22;4757;59.334;18.034;2022-08-01T10:38:08;24.50;99.90
9437;DHT22;4757;59.334;18.034;2022-08-01T10:40:42;24.70;99.90
9437;DHT22;4757;59.334;18.034;2022-08-01T10:43:10;24.90;99.90
9437;DHT22;4757;59.334;18.034;2022-08-01T10:45:39;25.10;99.90
9437;DHT22;4757;59.334;18.034;2022-08-01T10:48:14;25.40;99.90
9437;DHT22;4757;59.334;18.034;2022-08-01T10:50:48;24.40;99.90
9437;DHT22;4757;59.334;18.034;2022-08-01T10:53:20;24.70;99.90
9437;DHT22;4757;59.334;18.034;2022-08-01T10:58:39;24.60;99.90
9437;DHT22;4757;59.334;18.034;2022-08-01T11:09:44;23.90;99.90
9437;DHT22;4757;59.334;18.034;2022-08-01T11:12:18;24.00;99.90
9437;DHT22;4757;59.334;18.034;2022-08-01T11:17:43;24.40;99.90
9437;DHT22;4757;59.334;18.034;2022-08-01T11:23:15;23.70;99.90
9437;DHT22;4757;59.334;18.034;2022-08-01T11:28:32;23.80;99.90
9437;DHT22;4757;59.334;18.034;2022-08-01T11:41:28;23.90;99.90
9437;DHT22;4757;59.334;18.034;2022-08-01T11:44:13;23.80;99.90
9437;DHT22;4757;59.334;18.034;2022-08-01T11:46:54;23.50;99.90
9437;DHT22;4757;59.334;18.034;2022-08-01T11:52:23;23.10;99.90
9437;DHT22;4757;59.334;18.034;2022-08-01T11:54:53;23.30;99.90
9437;DHT22;4757;59.334;18.034;2022-08-01T12:00:00;23.20;99.90
9437;DHT22;4757;59.334;18.034;2022-08-01T12:02:34;23.00;99.90
9437;DHT22;4757;59.334;18.034;2022-08-01T12:05:07;22.80;99.90
9437;DHT22;4757;59.334;18.034;2022-08-01T12:07:39;22.80;99.90
9437;DHT22;4757;59.334;18.034;2022-08-01T12:10:16;23.10;99.90
9437;DHT22;4757;59.334;18.034;2022-08-01T12:12:54;23.30;99.90
9437;DHT22;4757;59.334;18.034;2022-08-01T12:15:23;23.20;99.90
9437;DHT22;4757;59.334;18.034;2022-08-01T12:17:59;23.20;99.90
9437;DHT22;4757;59.334;18.034;2022-08-01T12:20:31;23.00;99.90
9437;DHT22;4757;59.334;18.034;2022-08-01T12:23:01;22.80;99.90
9437;DHT22;4757;59.334;18.034;2022-08-01T12:25:29;22.80;99.90
9437;DHT22;4757;59.334;18.034;2022-08-01T12:28:00;22.90;99.90
9437;DHT22;4757;59.334;18.034;2022-08-01T12:30:28;23.00;99.90
9437;DHT22;4757;59.334;18.034;2022-08-01T12:32:58;22.90;99.90
9437;DHT22;4757;59.334;18.034;2022-08-01T12:35:27;22.90;99.90
9437;DHT22;4757;59.334;18.034;2022-08-01T12:38:01;22.90;99.90
9437;DHT22;4757;59.334;18.034;2022-08-01T12:40:35;22.90;99.90
9437;DHT22;4757;59.334;18.034;2022-08-01T12:43:08;22.60;99.90
9437;DHT22;4757;59.334;18.034;2022-08-01T12:45:45;22.80;99.90
9437;DHT22;4757;59.334;18.034;2022-08-01T12:48:24;22.90;99.90
9437;DHT22;4757;59.334;18.034;2022-08-01T12:50:52;23.00;99.90
9437;DHT22;4757;59.334;18.034;2022-08-01T12:53:20;23.10;99.90
9437;DHT22;4757;59.334;18.034;2022-08-01T12:55:49;23.00;99.90
9437;DHT22;4757;59.334;18.034;2022-08-01T12:58:30;23.00;99.90
9437;DHT22;4757;59.334;18.034;2022-08-01T13:01:06;23.40;99.90
9437;DHT22;4757;59.334;18.034;2022-08-01T13:03:35;23.70;99.90
9437;DHT22;4757;59.334;18.034;2022-08-01T13:06:13;23.90;99.90
9437;DHT22;4757;59.334;18.034;2022-08-01T13:08:42;24.30;99.90
9437;DHT22;4757;59.334;18.034;2022-08-01T13:11:14;24.40;99.90
9437;DHT22;4757;59.334;18.034;2022-08-01T13:13:48;24.10;99.90
9437;DHT22;4757;59.334;18.034;2022-08-01T13:16:22;23.60;99.90
9437;DHT22;4757;59.334;18.034;2022-08-01T13:19:08;23.70;99.90
9437;DHT22;4757;59.334;18.034;2022-08-01T13:21:35;23.40;99.90
9437;DHT22;4757;59.334;18.034;2022-08-01T13:24:27;23.50;99.90
9437;DHT22;4757;59.334;18.034;2022-08-01T13:26:58;23.70;99.90
9437;DHT22;4757;59.334;18.034;2022-08-01T13:32:15;24.20;99.90
9437;DHT22;4757;59.334;18.034;2022-08-01T13:37:29;23.80;99.90
9437;DHT22;4757;59.334;18.034;2022-08-01T13:39:58;23.90;99.90
9437;DHT22;4757;59.334;18.034;2022-08-01T13:42:25;24.30;99.90
9437;DHT22;4757;59.334;18.034;2022-08-01T13:44:52;24.10;99.90
9437;DHT22;4757;59.334;18.034;2022-08-01T13:47:19;24.80;99.90
9437;DHT22;4757;59.334;18.034;2022-08-01T13:49:58;25.40;99.90
9437;DHT22;4757;59.334;18.034;2022-08-01T13:52:29;25.80;99.90
9437;DHT22;4757;59.334;18.034;2022-08-01T13:54:58;25.70;99.90
9437;DHT22;4757;59.334;18.034;2022-08-01T13:57:25;25.60;99.90
9437;DHT22;4757;59.334;18.034;2022-08-01T14:00:04;25.60;99.90
9437;DHT22;4757;59.334;18.034;2022-08-01T14:02:32;25.70;99.90
9437;DHT22;4757;59.334;18.034;2022-08-01T14:04:59;25.40;99.90
9437;DHT22;4757;59.334;18.034;2022-08-01T14:07:28;25.60;99.90
9437;DHT22;4757;59.334;18.034;2022-08-01T14:09:56;25.50;99.90
9437;DHT22;4757;59.334;18.034;2022-08-01T14:12:44;25.30;99.90
9437;DHT22;4757;59.334;18.034;2022-08-01T14:15:13;25.30;99.90
9437;DHT22;4757;59.334;18.034;2022-08-01T14:18:04;25.30;99.90
9437;DHT22;4757;59.334;18.034;2022-08-01T14:20:36;24.80;99.80
9437;DHT22;4757;59.334;18.034;2022-08-01T14:23:03;24.90;99.50
9437;DHT22;4757;59.334;18.034;2022-08-01T14:25:39;25.00;99.40
9437;DHT22;4757;59.334;18.034;2022-08-01T14:28:26;25.00;99.20
9437;DHT22;4757;59.334;18.034;2022-08-01T14:30:55;25.00;98.90
9437;DHT22;4757;59.334;18.034;2022-08-01T14:33:23;24.80;99.00
9437;DHT22;4757;59.334;18.034;2022-08-01T14:35:51;25.00;99.40
9437;DHT22;4757;59.334;18.034;2022-08-01T14:38:37;25.10;99.70
9437;DHT22;4757;59.334;18.034;2022-08-01T14:41:05;25.00;99.90
9437;DHT22;4757;59.334;18.034;2022-08-01T14:43:32;25.30;99.90
9437;DHT22;4757;59.334;18.034;2022-08-01T14:46:03;25.30;99.90
9437;DHT22;4757;59.334;18.034;2022-08-01T14:48:31;25.40;99.90
9437;DHT22;4757;59.334;18.034;2022-08-01T14:50:58;25.30;99.90
9437;DHT22;4757;59.334;18.034;2022-08-01T14:53:29;25.40;99.90
9437;DHT22;4757;59.334;18.034;2022-08-01T14:56:00;25.40;99.90
9437;DHT22;4757;59.334;18.034;2022-08-01T14:58:27;25.20;99.90
9437;DHT22;4757;59.334;18.034;2022-08-01T15:00:54;25.10;99.90
9437;DHT22;4757;59.334;18.034;2022-08-01T15:03:25;25.40;99.90
9437;DHT22;4757;59.334;18.034;2022-08-01T15:05:52;25.40;99.90
9437;DHT22;4757;59.334;18.034;2022-08-01T15:08:19;25.50;99.90
9437;DHT22;4757;59.334;18.034;2022-08-01T15:10:46;25.40;99.90
9437;DHT22;4757;59.334;18.034;2022-08-01T15:13:13;25.20;99.90
9437;DHT22;4757;59.334;18.034;2022-08-01T15:15:40;25.30;99.90
9437;DHT22;4757;59.334;18.034;2022-08-01T15:18:07;25.20;99.90
9437;DHT22;4757;59.334;18.034;2022-08-01T15:20:34;24.10;99.90
9437;DHT22;4757;59.334;18.034;2022-08-01T15:23:01;24.00;99.90
9437;DHT22;4757;59.334;18.034;2022-08-01T15:25:28;24.30;99.90
9437;DHT22;4757;59.334;18.034;2022-08-01T15:28:08;24.40;99.90
9437;DHT22;4757;59.334;18.034;2022-08-01T15:30:36;24.20;99.90
9437;DHT22;4757;59.334;18.034;2022-08-01T15:33:03;24.00;99.90
9437;DHT22;4757;59.334;18.034;2022-08-01T15:35:31;23.90;99.90
9437;DHT22;4757;59.334;18.034;2022-08-01T15:37:58;23.90;99.90
9437;DHT22;4757;59.334;18.034;2022-08-01T15:40:25;23.90;99.90
9437;DHT22;4757;59.334;18.034;2022-08-01T15:42:53;23.90;99.90
9437;DHT22;4757;59.334;18.034;2022-08-01T15:45:20;23.90;99.90
9437;DHT22;4757;59.334;18.034;2022-08-01T15:48:08;23.90;99.90
9437;DHT22;4757;59.334;18.034;2022-08-01T15:50:35;23.70;99.90
9437;DHT22;4757;59.334;18.034;2022-08-01T15:53:05;23.70;99.90
9437;DHT22;4757;59.334;18.034;2022-08-01T15:55:36;23.90;99.90
9437;DHT22;4757;59.334;18.034;2022-08-01T15:58:19;24.40;99.90
9437;DHT22;4757;59.334;18.034;2022-08-01T16:00:47;24.80;99.90
9437;DHT22;4757;59.334;18.034;2022-08-01T16:03:14;25.00;99.90
9437;DHT22;4757;59.334;18.034;2022-08-01T16:05:41;25.00;99.90
9437;DHT22;4757;59.334;18.034;2022-08-01T16:08:11;24.80;99.90
9437;DHT22;4757;59.334;18.034;2022-08-01T16:10:38;24.60;99.90
9437;DHT22;4757;59.334;18.034;2022-08-01T16:13:05;24.00;99.90
9437;DHT22;4757;59.334;18.034;2022-08-01T16:15:34;24.20;99.90
9437;DHT22;4757;59.334;18.034;2022-08-01T16:18:04;24.00;99.90
9437;DHT22;4757;59.334;18.034;2022-08-01T16:20:31;24.00;99.90
9437;DHT22;4757;59.334;18.034;2022-08-01T16:23:00;24.30;99.90
9437;DHT22;4757;59.334;18.034;2022-08-01T16:25:27;24.60;99.90
9437;DHT22;4757;59.334;18.034;2022-08-01T16:27:54;24.90;99.90
9437;DHT22;4757;59.334;18.034;2022-08-01T16:30:22;24.70;99.90
9437;DHT22;4757;59.334;18.034;2022-08-01T16:32:49;24.50;99.90
9437;DHT22;4757;59.334;18.034;2022-08-01T16:35:19;24.70;99.90
9437;DHT22;4757;59.334;18.034;2022-08-01T16:37:46;24.80;99.90
9437;DHT22;4757;59.334;18.034;2022-08-01T16:40:13;24.80;99.90
9437;DHT22;4757;59.334;18.034;2022-08-01T16:42:40;24.40;99.90
9437;DHT22;4757;59.334;18.034;2022-08-01T16:45:07;24.40;99.90
9437;DHT22;4757;59.334;18.034;2022-08-01T16:47:39;24.40;99.90
9437;DHT22;4757;59.334;18.034;2022-08-01T16:50:07;23.90;99.90
9437;DHT22;4757;59.334;18.034;2022-08-01T16:52:35;24.00;99.90
9437;DHT22;4757;59.334;18.034;2022-08-01T16:55:08;24.00;99.90
9437;DHT22;4757;59.334;18.034;2022-08-01T16:57:36;24.10;99.90